Time;durP1;ratioP1;P1;durP2;ratioP2;P2;SDS_P1;SDS_P2;PMS_P1;PMS_P2;Temp;Humidity;BMP_temperature;BMP_pressure;BME280_temperature;BME280_humidity;BME280_pressure;Samples;Min_cycle;Max_cycle;Signal;HPM_P1;HPM_P2
2023/08/14 00:02:04;;;;;;;0.60;0.60;;;13.30;99.90;;;;;;5055548;28;20208;-73
2023/08/14 00:04:30;;;;;;;0.47;0.47;;;13.40;99.90;;;;;;5072199;28;20225;-72
2023/08/14 00:06:55;;;;;;;0.60;0.60;;;13.40;99.90;;;;;;5073228;28;20200;-72
2023/08/14 00:09:21;;;;;;;0.50;0.50;;;13.40;99.90;;;;;;5055419;28;20263;-72
2023/08/14 00:11:47;;;;;;;2.28;0.82;;;13.50;99.90;;;;;;5072921;28;20189;-72
2023/08/14 00:14:14;;;;;;;0.45;0.45;;;13.60;99.90;;;;;;5073099;28;20217;-73
2023/08/14 00:16:40;;;;;;;0.40;0.40;;;13.60;99.90;;;;;;5073156;28;20199;-73
2023/08/14 00:19:05;;;;;;;1.13;1.02;;;13.70;99.90;;;;;;5073246;28;20687;-73
2023/08/14 00:21:31;;;;;;;0.52;0.52;;;13.90;99.90;;;;;;5084333;28;20264;-73
2023/08/14 00:23:57;;;;;;;0.50;0.50;;;14.00;99.90;;;;;;5093406;28;20694;-71
2023/08/14 00:26:23;;;;;;;0.43;0.43;;;14.10;99.90;;;;;;5093408;28;20278;-71
2023/08/14 00:28:48;;;;;;;0.43;0.43;;;14.20;99.90;;;;;;5075012;28;20287;-71
2023/08/14 00:31:14;;;;;;;0.38;0.38;;;14.20;99.90;;;;;;5093281;28;20565;-71
2023/08/14 00:33:40;;;;;;;0.63;0.63;;;14.30;99.90;;;;;;5093231;28;20199;-70
2023/08/14 00:36:05;;;;;;;0.50;0.50;;;14.50;99.90;;;;;;5091876;28;20204;-70
2023/08/14 00:38:31;;;;;;;0.70;0.70;;;14.70;99.90;;;;;;5091712;28;20290;-70
2023/08/14 00:40:57;;;;;;;0.43;0.43;;;14.80;99.90;;;;;;5074914;28;20196;-71
2023/08/14 00:43:23;;;;;;;0.57;0.57;;;14.90;99.90;;;;;;5072168;28;20235;-70
2023/08/14 00:45:58;;;;;;;0.40;0.40;;;14.90;99.90;;;;;;5072899;28;20562;-70
2023/08/14 00:48:25;;;;;;;0.55;0.55;;;15.00;99.90;;;;;;5072646;28;20231;-71
2023/08/14 00:50:52;;;;;;;0.73;0.70;;;15.10;99.90;;;;;;5072744;28;20208;-70
2023/08/14 00:53:19;;;;;;;0.95;0.68;;;15.10;99.90;;;;;;5072791;28;20274;-71
2023/08/14 00:55:46;;;;;;;0.32;0.32;;;15.00;99.90;;;;;;5072668;28;20197;-72
2023/08/14 00:58:12;;;;;;;0.30;0.30;;;15.00;99.90;;;;;;5053883;28;20335;-71
2023/08/14 01:00:39;;;;;;;0.40;0.40;;;14.90;99.90;;;;;;5072089;28;20189;-71
2023/08/14 01:03:05;;;;;;;0.40;0.40;;;14.90;99.90;;;;;;5055133;28;20189;-73
2023/08/14 01:05:31;;;;;;;0.52;0.52;;;14.80;99.90;;;;;;5080825;22;20244;-70
2023/08/14 01:07:57;;;;;;;0.60;0.60;;;14.80;99.90;;;;;;5072471;28;20575;-71
2023/08/14 01:10:28;;;;;;;0.47;0.47;;;14.70;99.90;;;;;;5072311;28;20201;-69
2023/08/14 01:13:18;;;;;;;0.45;0.45;;;14.70;99.90;;;;;;5072105;28;20275;-69
2023/08/14 01:15:47;;;;;;;0.85;0.85;;;14.70;99.90;;;;;;5072339;28;20189;-69
2023/08/14 01:18:17;;;;;;;0.82;0.55;;;14.70;99.90;;;;;;5071967;28;20185;-69
2023/08/14 01:20:54;;;;;;;0.50;0.50;;;14.70;99.90;;;;;;5071706;28;20250;-69
2023/08/14 01:23:38;;;;;;;0.50;0.50;;;14.70;99.90;;;;;;5073268;28;20271;-71
2023/08/14 01:26:04;;;;;;;0.38;0.38;;;14.80;99.90;;;;;;5076045;28;20185;-75
2023/08/14 01:28:30;;;;;;;0.35;0.35;;;14.80;99.90;;;;;;5074648;28;20212;-75
2023/08/14 01:30:56;;;;;;;0.40;0.40;;;14.80;99.90;;;;;;5076848;28;20226;-76
2023/08/14 01:33:22;;;;;;;0.50;0.50;;;14.90;99.90;;;;;;5076159;28;20283;-70
2023/08/14 01:36:00;;;;;;;0.95;0.95;;;14.90;99.90;;;;;;5071661;28;20268;-70
2023/08/14 01:38:36;;;;;;;0.90;0.90;;;15.00;99.90;;;;;;5076331;28;20199;-71
2023/08/14 01:41:15;;;;;;;0.47;0.47;;;15.00;99.90;;;;;;5075317;28;20193;-72
2023/08/14 01:43:47;;;;;;;0.80;0.75;;;15.00;99.90;;;;;;5076731;28;20192;-69
2023/08/14 01:46:15;;;;;;;0.40;0.40;;;15.00;99.90;;;;;;5076245;28;20193;-66
2023/08/14 01:48:41;;;;;;;0.40;0.40;;;15.00;99.90;;;;;;5057193;28;20200;-68
2023/08/14 01:51:09;;;;;;;0.40;0.40;;;15.00;99.90;;;;;;5075801;28;20602;-69
2023/08/14 01:53:36;;;;;;;9.30;2.00;;;15.00;99.90;;;;;;5075800;28;20189;-69
2023/08/14 01:56:01;;;;;;;0.82;0.82;;;15.00;99.90;;;;;;5074945;28;20276;-69
2023/08/14 01:58:27;;;;;;;0.75;0.70;;;15.10;99.90;;;;;;5075153;28;20282;-69
2023/08/14 02:00:53;;;;;;;0.43;0.43;;;15.20;99.90;;;;;;5057619;28;20205;-71
2023/08/14 02:03:19;;;;;;;1.00;0.95;;;15.20;99.90;;;;;;5074668;28;20192;-69
2023/08/14 02:05:45;;;;;;;0.40;0.40;;;15.20;99.90;;;;;;5073920;28;20244;-69
2023/08/14 02:08:10;;;;;;;0.82;0.82;;;15.10;99.90;;;;;;5075192;28;20589;-70
2023/08/14 02:10:36;;;;;;;0.73;0.73;;;15.20;99.90;;;;;;5075496;28;20204;-69
2023/08/14 02:13:02;;;;;;;4.68;0.88;;;15.10;99.90;;;;;;5074775;28;20197;-72
2023/08/14 02:15:28;;;;;;;0.63;0.63;;;15.10;99.90;;;;;;5073904;28;20221;-74
2023/08/14 02:17:54;;;;;;;0.50;0.50;;;15.00;99.90;;;;;;5074894;28;20189;-73
2023/08/14 02:20:19;;;;;;;0.70;0.70;;;15.00;99.90;;;;;;5056800;28;20228;-73
2023/08/14 02:22:46;;;;;;;0.90;0.70;;;14.90;99.90;;;;;;5074604;28;20224;-73
2023/08/14 02:25:11;;;;;;;0.50;0.50;;;14.90;99.90;;;;;;5073139;28;20201;-73
2023/08/14 02:27:37;;;;;;;0.38;0.38;;;14.80;99.90;;;;;;5074484;28;20208;-73
2023/08/14 02:30:03;;;;;;;0.45;0.45;;;14.80;99.90;;;;;;5073946;28;20245;-73
2023/08/14 02:32:29;;;;;;;0.40;0.40;;;14.80;99.90;;;;;;5073810;28;20196;-73
2023/08/14 02:34:56;;;;;;;0.40;0.40;;;14.80;99.90;;;;;;5073812;28;20207;-73
2023/08/14 02:37:22;;;;;;;0.52;0.52;;;14.70;99.90;;;;;;5074085;28;20323;-73
2023/08/14 02:39:48;;;;;;;0.32;0.32;;;14.60;99.90;;;;;;5073299;28;20524;-73
2023/08/14 02:42:19;;;;;;;0.60;0.60;;;14.50;99.90;;;;;;5074129;28;20658;-73
2023/08/14 02:44:46;;;;;;;0.40;0.40;;;14.50;99.90;;;;;;5073399;28;20272;-73
2023/08/14 02:47:12;;;;;;;0.35;0.35;;;14.50;99.90;;;;;;5073435;28;20207;-73
2023/08/14 02:49:37;;;;;;;0.50;0.50;;;14.40;99.90;;;;;;5073763;28;20204;-73
2023/08/14 02:52:03;;;;;;;0.90;0.80;;;14.40;99.90;;;;;;5074000;28;20197;-75
2023/08/14 02:54:29;;;;;;;0.40;0.40;;;14.40;99.90;;;;;;5056000;28;20197;-73
2023/08/14 02:56:55;;;;;;;0.40;0.40;;;14.40;99.90;;;;;;5073545;28;20177;-73
2023/08/14 02:59:20;;;;;;;0.40;0.40;;;14.30;99.90;;;;;;5073548;28;20224;-76
2023/08/14 03:01:46;;;;;;;1.98;1.10;;;14.30;99.90;;;;;;5054584;28;20196;-75
2023/08/14 03:04:14;;;;;;;0.70;0.70;;;14.40;99.90;;;;;;5073335;28;20205;-76
2023/08/14 03:06:40;;;;;;;0.40;0.40;;;14.30;99.90;;;;;;5055498;28;20200;-74
2023/08/14 03:09:05;;;;;;;0.40;0.40;;;14.40;99.90;;;;;;5071388;28;20217;-73
2023/08/14 03:11:31;;;;;;;0.47;0.47;;;14.40;99.90;;;;;;5053966;28;20197;-73
2023/08/14 03:13:57;;;;;;;0.50;0.50;;;14.50;99.90;;;;;;5053715;28;20194;-73
2023/08/14 03:16:23;;;;;;;6.57;1.05;;;14.50;99.90;;;;;;5053081;28;20281;-73
2023/08/14 03:18:48;;;;;;;1.17;1.08;;;14.60;99.90;;;;;;5053274;28;20209;-74
2023/08/14 03:21:14;;;;;;;0.43;0.43;;;14.60;99.90;;;;;;5042243;28;20207;-73
2023/08/14 03:23:40;;;;;;;0.40;0.40;;;14.60;99.90;;;;;;5033406;28;20190;-70
2023/08/14 03:26:06;;;;;;;0.98;0.98;;;14.70;99.90;;;;;;5033571;28;20660;-72
2023/08/14 03:28:32;;;;;;;0.40;0.40;;;14.80;99.90;;;;;;5041541;28;20216;-71
2023/08/14 03:30:57;;;;;;;0.60;0.60;;;14.90;99.90;;;;;;5053581;28;20198;-72
2023/08/14 03:33:26;;;;;;;0.40;0.40;;;14.90;99.90;;;;;;5051777;28;20197;-72
2023/08/14 03:35:53;;;;;;;2.30;1.25;;;14.90;99.90;;;;;;5053210;28;20683;-71
2023/08/14 03:38:19;;;;;;;0.50;0.50;;;14.90;99.90;;;;;;5053234;28;20189;-71
2023/08/14 03:40:44;;;;;;;0.55;0.55;;;14.80;99.90;;;;;;5053097;28;20198;-71
2023/08/14 03:43:10;;;;;;;0.63;0.50;;;14.70;99.90;;;;;;5053144;28;20660;-71
2023/08/14 03:45:36;;;;;;;0.30;0.30;;;14.70;99.90;;;;;;5052617;28;20201;-71
2023/08/14 03:48:02;;;;;;;0.30;0.30;;;14.50;99.90;;;;;;5052632;28;20266;-71
2023/08/14 03:50:28;;;;;;;0.60;0.60;;;14.50;99.90;;;;;;5034434;28;20221;-71
2023/08/14 03:52:53;;;;;;;0.50;0.50;;;14.40;99.90;;;;;;5052613;28;20250;-71
2023/08/14 03:55:19;;;;;;;0.47;0.47;;;14.30;99.90;;;;;;5034900;28;20251;-71
2023/08/14 03:57:45;;;;;;;5.05;0.95;;;14.30;99.90;;;;;;5035349;28;20656;-71
2023/08/14 04:00:11;;;;;;;1.48;0.73;;;14.20;99.90;;;;;;5052262;28;20228;-71
2023/08/14 04:02:37;;;;;;;0.95;0.75;;;14.20;99.90;;;;;;5052599;28;20229;-71
2023/08/14 04:05:03;;;;;;;0.85;0.85;;;14.10;99.90;;;;;;5042462;28;20361;-71
2023/08/14 04:07:29;;;;;;;0.45;0.45;;;14.10;99.90;;;;;;5053955;28;20193;-71
2023/08/14 04:09:55;;;;;;;2.05;0.70;;;14.10;99.90;;;;;;5072851;28;20729;-72
2023/08/14 04:12:20;;;;;;;0.47;0.47;;;14.10;99.90;;;;;;5071578;28;20201;-71
2023/08/14 04:14:49;;;;;;;0.30;0.30;;;14.10;99.90;;;;;;5072816;28;20203;-71
2023/08/14 04:17:15;;;;;;;0.40;0.40;;;14.10;99.90;;;;;;5054883;28;20200;-71
2023/08/14 04:19:41;;;;;;;0.40;0.40;;;14.20;99.90;;;;;;5073018;28;20678;-71
2023/08/14 04:22:07;;;;;;;0.40;0.40;;;14.20;99.90;;;;;;5090240;28;20272;-71
2023/08/14 04:24:32;;;;;;;0.40;0.40;;;14.30;99.90;;;;;;5086106;28;20223;-71
2023/08/14 04:26:58;;;;;;;0.50;0.50;;;14.40;99.90;;;;;;5072324;28;20279;-71
2023/08/14 04:29:24;;;;;;;0.57;0.57;;;14.50;99.90;;;;;;5072246;28;20292;-71
2023/08/14 04:31:50;;;;;;;0.47;0.47;;;14.60;99.90;;;;;;5071947;28;20185;-71
2023/08/14 04:34:15;;;;;;;0.32;0.32;;;14.70;99.90;;;;;;5071754;28;20247;-71
2023/08/14 04:36:41;;;;;;;0.95;0.95;;;14.90;99.90;;;;;;5071407;28;20207;-71
2023/08/14 04:39:09;;;;;;;0.30;0.30;;;15.00;99.90;;;;;;5071251;28;20612;-72
2023/08/14 04:41:35;;;;;;;0.73;0.73;;;15.20;99.90;;;;;;5071904;28;20195;-71
2023/08/14 04:44:01;;;;;;;0.65;0.65;;;15.40;99.90;;;;;;5072088;28;20272;-72
2023/08/14 04:46:32;;;;;;;0.40;0.40;;;15.50;99.90;;;;;;5072449;28;20204;-71
2023/08/14 04:48:59;;;;;;;0.57;0.57;;;15.60;99.90;;;;;;5072023;28;20244;-71
2023/08/14 04:51:26;;;;;;;0.50;0.50;;;15.60;99.90;;;;;;5071909;28;20189;-72
2023/08/14 04:53:52;;;;;;;0.40;0.40;;;15.70;99.90;;;;;;5071931;28;20211;-71
2023/08/14 04:56:18;;;;;;;0.47;0.47;;;15.70;99.90;;;;;;5071955;28;20747;-70
2023/08/14 04:58:44;;;;;;;0.38;0.38;;;15.70;99.90;;;;;;5071790;28;20271;-70
2023/08/14 05:01:10;;;;;;;0.73;0.73;;;15.70;99.90;;;;;;5071822;28;20562;-71
2023/08/14 05:03:36;;;;;;;0.43;0.43;;;15.80;99.90;;;;;;5071738;28;20201;-71
2023/08/14 05:06:02;;;;;;;0.50;0.50;;;15.90;99.90;;;;;;5054576;28;20237;-71
2023/08/14 05:08:27;;;;;;;0.98;0.88;;;16.00;99.90;;;;;;5051597;28;20201;-71
2023/08/14 05:10:54;;;;;;;0.52;0.52;;;16.10;99.90;;;;;;5051831;28;20186;-70
2023/08/14 05:13:21;;;;;;;0.30;0.30;;;16.30;99.90;;;;;;5051759;28;20603;-71
2023/08/14 05:15:48;;;;;;;0.38;0.38;;;16.50;99.90;;;;;;5051783;28;20279;-71
2023/08/14 05:18:14;;;;;;;3.03;1.20;;;16.80;99.90;;;;;;5051891;28;20197;-71
2023/08/14 05:20:44;;;;;;;3.33;0.80;;;17.00;99.90;;;;;;5051344;28;20216;-72
2023/08/14 05:23:10;;;;;;;0.68;0.68;;;17.00;99.90;;;;;;5049720;28;20221;-72
2023/08/14 05:25:36;;;;;;;0.73;0.73;;;16.90;99.90;;;;;;5051205;28;20672;-71
2023/08/14 05:28:04;;;;;;;0.40;0.40;;;16.90;99.90;;;;;;5051582;28;20232;-71
2023/08/14 05:30:29;;;;;;;1.40;0.60;;;16.80;99.90;;;;;;5050023;28;20224;-71
2023/08/14 05:32:55;;;;;;;0.77;0.77;;;16.80;99.90;;;;;;5051413;28;20209;-72
2023/08/14 05:35:24;;;;;;;0.57;0.57;;;16.70;99.90;;;;;;5051377;28;20449;-71
2023/08/14 05:37:58;;;;;;;0.40;0.40;;;16.70;99.90;;;;;;5051628;28;20277;-71
2023/08/14 05:40:28;;;;;;;0.50;0.50;;;16.70;99.90;;;;;;5051157;28;20235;-72
2023/08/14 05:43:04;;;;;;;0.55;0.55;;;16.70;99.90;;;;;;5051469;28;20194;-71
2023/08/14 05:45:38;;;;;;;0.93;0.75;;;16.70;99.90;;;;;;5050459;28;20839;-71
2023/08/14 05:48:06;;;;;;;0.50;0.50;;;16.70;99.90;;;;;;5051135;28;20193;-71
2023/08/14 05:50:32;;;;;;;1.02;0.73;;;16.70;99.90;;;;;;5051384;28;20724;-71
2023/08/14 05:53:03;;;;;;;1.85;1.35;;;16.70;99.90;;;;;;5051673;28;20202;-71
2023/08/14 05:55:39;;;;;;;0.88;0.88;;;16.70;99.90;;;;;;5051394;28;20232;-70
2023/08/14 05:58:06;;;;;;;0.32;0.32;;;16.70;99.90;;;;;;5051250;28;20201;-71
2023/08/14 06:00:33;;;;;;;3.17;0.93;;;16.70;99.90;;;;;;5051406;28;20201;-71
2023/08/14 06:02:59;;;;;;;0.50;0.50;;;16.70;99.90;;;;;;5051455;28;20198;-71
2023/08/14 06:05:25;;;;;;;0.35;0.35;;;16.80;99.90;;;;;;5050846;28;20316;-71
2023/08/14 06:07:53;;;;;;;0.60;0.60;;;16.80;99.90;;;;;;5051209;28;20562;-71
2023/08/14 06:10:19;;;;;;;0.80;0.70;;;16.90;99.90;;;;;;5053615;28;20546;-71
2023/08/14 06:12:45;;;;;;;0.50;0.50;;;16.90;99.90;;;;;;5054727;28;20718;-71
2023/08/14 06:15:15;;;;;;;0.60;0.60;;;16.90;99.90;;;;;;5054588;28;20641;-71
2023/08/14 06:17:41;;;;;;;0.90;0.70;;;16.90;99.90;;;;;;5054980;28;20185;-71
2023/08/14 06:20:10;;;;;;;0.63;0.63;;;16.90;99.90;;;;;;5036528;28;20267;-71
2023/08/14 06:22:44;;;;;;;0.40;0.40;;;16.90;99.90;;;;;;5054671;28;20708;-71
2023/08/14 06:25:11;;;;;;;0.43;0.43;;;16.90;99.90;;;;;;5054842;28;20192;-71
2023/08/14 06:27:38;;;;;;;0.50;0.50;;;16.90;99.90;;;;;;5053320;28;20198;-71
2023/08/14 06:30:04;;;;;;;0.57;0.57;;;17.00;99.90;;;;;;5054528;28;20281;-71
2023/08/14 06:32:30;;;;;;;2.05;1.13;;;17.10;99.90;;;;;;5054761;28;20213;-71
2023/08/14 06:34:56;;;;;;;3.30;0.75;;;17.20;99.90;;;;;;5054282;28;20220;-71
2023/08/14 06:37:22;;;;;;;0.30;0.30;;;17.20;99.90;;;;;;5054255;28;20198;-71
2023/08/14 06:39:47;;;;;;;0.63;0.60;;;17.20;99.90;;;;;;5054775;28;20690;-71
2023/08/14 06:42:13;;;;;;;1.63;1.05;;;17.20;99.90;;;;;;5054608;28;20202;-71
2023/08/14 06:44:39;;;;;;;7.20;0.80;;;17.10;99.90;;;;;;5054469;28;20225;-70
2023/08/14 06:47:05;;;;;;;0.85;0.85;;;17.10;99.90;;;;;;5036410;28;20251;-71
2023/08/14 06:49:31;;;;;;;0.68;0.68;;;17.00;99.90;;;;;;5054129;28;20213;-71
2023/08/14 06:51:57;;;;;;;0.30;0.30;;;16.90;99.90;;;;;;5053934;28;20366;-71
2023/08/14 06:54:23;;;;;;;0.65;0.55;;;16.90;99.90;;;;;;5053665;28;20212;-72
2023/08/14 06:56:49;;;;;;;0.40;0.40;;;16.90;99.90;;;;;;5045632;28;20225;-71
2023/08/14 06:59:14;;;;;;;1.38;0.60;;;17.00;99.90;;;;;;5033066;28;20668;-72
2023/08/14 07:01:41;;;;;;;2.72;0.95;;;17.20;99.90;;;;;;5032765;28;20245;-72
2023/08/14 07:04:07;;;;;;;0.47;0.47;;;17.30;99.90;;;;;;5034660;28;20560;-72
2023/08/14 07:06:33;;;;;;;0.28;0.28;;;17.40;99.90;;;;;;5053901;28;20201;-72
2023/08/14 07:08:59;;;;;;;0.30;0.30;;;17.40;99.90;;;;;;5054037;28;20306;-72
2023/08/14 07:11:25;;;;;;;3.15;1.17;;;17.40;99.90;;;;;;5053642;28;20204;-71
2023/08/14 07:13:51;;;;;;;0.60;0.60;;;17.50;99.90;;;;;;5064555;28;20275;-72
2023/08/14 07:16:17;;;;;;;0.30;0.30;;;17.50;99.90;;;;;;5073865;28;20242;-73
2023/08/14 07:18:42;;;;;;;0.95;0.88;;;17.60;99.90;;;;;;5073753;28;20188;-72
2023/08/14 07:21:08;;;;;;;2.83;0.90;;;17.70;99.90;;;;;;5072267;28;20732;-73
2023/08/14 07:23:36;;;;;;;0.70;0.70;;;17.70;99.90;;;;;;5073469;28;20217;-72
2023/08/14 07:26:11;;;;;;;6.22;1.23;;;17.80;99.90;;;;;;5073158;28;20542;-73
2023/08/14 07:28:38;;;;;;;0.68;0.68;;;17.80;99.90;;;;;;5073337;28;20208;-74
2023/08/14 07:31:04;;;;;;;0.57;0.57;;;18.00;99.90;;;;;;5073874;28;20275;-74
2023/08/14 07:33:29;;;;;;;0.22;0.22;;;17.90;99.90;;;;;;5073202;28;20193;-73
2023/08/14 07:35:56;;;;;;;0.30;0.30;;;17.80;99.90;;;;;;5073207;28;20189;-73
2023/08/14 07:38:22;;;;;;;0.30;0.30;;;17.70;99.90;;;;;;5072743;28;20185;-73
2023/08/14 07:40:48;;;;;;;0.30;0.30;;;17.70;99.90;;;;;;5073445;28;20193;-76
2023/08/14 07:43:13;;;;;;;0.30;0.30;;;17.80;99.90;;;;;;5073382;28;20193;-75
2023/08/14 07:45:39;;;;;;;0.45;0.43;;;17.90;99.90;;;;;;5073274;28;20216;-75
2023/08/14 07:48:05;;;;;;;0.30;0.30;;;18.10;99.90;;;;;;5055134;28;20672;-75
2023/08/14 07:50:30;;;;;;;0.22;0.22;;;18.20;99.90;;;;;;5073336;28;20208;-74
2023/08/14 07:52:56;;;;;;;1.48;0.77;;;18.50;99.90;;;;;;5073329;28;20193;-73
2023/08/14 07:55:22;;;;;;;0.30;0.30;;;18.60;99.90;;;;;;5073141;28;20271;-73
2023/08/14 07:57:48;;;;;;;0.30;0.30;;;18.70;99.90;;;;;;5072838;28;20709;-73
2023/08/14 08:00:14;;;;;;;0.82;0.50;;;18.80;99.90;;;;;;5073295;28;20193;-74
2023/08/14 08:02:39;;;;;;;0.20;0.20;;;18.90;99.90;;;;;;5072547;28;20196;-73
2023/08/14 08:05:05;;;;;;;0.63;0.63;;;19.10;99.90;;;;;;5063674;28;20233;-72
2023/08/14 08:07:31;;;;;;;5.38;1.25;;;19.20;99.90;;;;;;5051743;28;20278;-71
2023/08/14 08:09:57;;;;;;;2.70;1.20;;;19.10;99.90;;;;;;5052465;28;20720;-71
2023/08/14 08:12:23;;;;;;;0.35;0.35;;;19.10;99.90;;;;;;5052735;28;20232;-72
2023/08/14 08:14:48;;;;;;;2.47;1.00;;;19.00;99.90;;;;;;5052704;28;20197;-72
2023/08/14 08:17:16;;;;;;;0.22;0.22;;;19.10;99.90;;;;;;5052509;28;20197;-71
2023/08/14 08:19:41;;;;;;;0.63;0.63;;;19.20;99.90;;;;;;5052240;28;20219;-72
2023/08/14 08:22:07;;;;;;;20.05;0.52;;;19.60;99.90;;;;;;5051818;28;20231;-71
2023/08/14 08:24:33;;;;;;;0.57;0.57;;;20.00;99.90;;;;;;5052507;28;20189;-71
2023/08/14 08:26:58;;;;;;;0.82;0.50;;;20.20;99.90;;;;;;5052697;28;20193;-71
2023/08/14 08:29:24;;;;;;;0.30;0.30;;;20.10;99.90;;;;;;5052099;28;20212;-71
2023/08/14 08:31:50;;;;;;;2.50;1.17;;;19.80;99.90;;;;;;5051959;28;20656;-71
2023/08/14 08:34:16;;;;;;;1.05;0.98;;;19.50;99.90;;;;;;5052441;28;20251;-71
2023/08/14 08:36:41;;;;;;;0.30;0.30;;;19.40;99.90;;;;;;5052316;28;20217;-71
2023/08/14 08:39:07;;;;;;;0.32;0.32;;;19.40;99.90;;;;;;5052517;28;20228;-72
2023/08/14 08:41:37;;;;;;;2.40;0.93;;;19.30;99.90;;;;;;5052015;28;20247;-72
2023/08/14 08:44:14;;;;;;;0.73;0.73;;;19.30;99.90;;;;;;5052565;28;20239;-71
2023/08/14 08:46:50;;;;;;;0.75;0.75;;;19.30;99.90;;;;;;5051790;28;20197;-70
2023/08/14 08:49:17;;;;;;;0.50;0.50;;;19.10;99.90;;;;;;5052525;28;20205;-72
2023/08/14 08:51:44;;;;;;;0.50;0.50;;;19.00;99.90;;;;;;5034168;28;20276;-71
2023/08/14 08:54:12;;;;;;;1.02;0.60;;;19.10;99.90;;;;;;5050985;28;20212;-71
2023/08/14 08:56:38;;;;;;;0.50;0.50;;;19.20;99.90;;;;;;5034133;28;20193;-70
2023/08/14 08:59:04;;;;;;;1.25;0.98;;;19.30;99.90;;;;;;5052414;28;20225;-72
2023/08/14 09:01:30;;;;;;;1.40;0.73;;;19.30;99.90;;;;;;5051971;28;20745;-71
2023/08/14 09:03:56;;;;;;;1.27;0.55;;;19.40;99.90;;;;;;5051305;28;20189;-72
2023/08/14 09:06:22;;;;;;;0.30;0.30;;;19.30;99.90;;;;;;5051243;28;20229;-71
2023/08/14 09:08:48;;;;;;;0.40;0.40;;;19.30;99.90;;;;;;5051937;28;20209;-72
2023/08/14 09:11:13;;;;;;;0.30;0.30;;;19.20;99.90;;;;;;5051929;28;20652;-71
2023/08/14 09:13:39;;;;;;;0.45;0.45;;;19.10;99.90;;;;;;5051849;28;20189;-73
2023/08/14 09:16:05;;;;;;;0.40;0.40;;;18.90;99.90;;;;;;5052011;28;20212;-73
2023/08/14 09:18:31;;;;;;;0.45;0.45;;;18.90;99.90;;;;;;5051923;28;20672;-72
2023/08/14 09:20:57;;;;;;;3.20;0.70;;;18.90;99.90;;;;;;5051690;28;20582;-72
2023/08/14 09:23:23;;;;;;;1.85;0.57;;;18.90;99.90;;;;;;5051428;28;20192;-73
2023/08/14 09:25:50;;;;;;;1.05;1.00;;;18.90;99.90;;;;;;5035975;28;20239;-72
2023/08/14 09:28:17;;;;;;;1.25;0.52;;;18.80;99.90;;;;;;5051921;28;20190;-72
2023/08/14 09:30:43;;;;;;;0.60;0.60;;;18.90;99.90;;;;;;5052075;28;20210;-72
2023/08/14 09:33:11;;;;;;;0.38;0.38;;;18.90;99.90;;;;;;5051624;28;20239;-73
2023/08/14 09:35:38;;;;;;;3.17;0.60;;;18.90;99.90;;;;;;5050471;28;20189;-72
2023/08/14 09:38:05;;;;;;;0.20;0.20;;;18.80;99.90;;;;;;5049865;28;20564;-72
2023/08/14 09:40:32;;;;;;;0.98;0.95;;;18.80;99.90;;;;;;5051511;28;20193;-72
2023/08/14 09:42:59;;;;;;;0.30;0.30;;;18.90;99.90;;;;;;5050966;28;20628;-72
2023/08/14 09:45:28;;;;;;;2.47;0.70;;;19.10;99.90;;;;;;5054812;28;20570;-72
2023/08/14 09:48:01;;;;;;;0.40;0.40;;;19.20;99.90;;;;;;5055612;28;20247;-73
2023/08/14 09:50:30;;;;;;;0.57;0.55;;;19.40;99.90;;;;;;5055375;28;20208;-72
2023/08/14 09:53:00;;;;;;;0.50;0.50;;;19.80;99.90;;;;;;5055710;28;20222;-72
2023/08/14 09:55:27;;;;;;;0.40;0.40;;;19.90;99.90;;;;;;5037183;28;20194;-73
2023/08/14 09:57:54;;;;;;;0.30;0.30;;;19.90;99.90;;;;;;5055440;28;20193;-72
2023/08/14 10:00:20;;;;;;;0.28;0.28;;;20.00;99.90;;;;;;5055388;28;20633;-72
2023/08/14 10:02:47;;;;;;;1.13;0.63;;;20.10;99.90;;;;;;5055069;28;20205;-73
2023/08/14 10:05:16;;;;;;;0.45;0.45;;;20.30;99.90;;;;;;5054822;28;20291;-72
2023/08/14 10:07:43;;;;;;;0.65;0.55;;;20.40;99.90;;;;;;5055317;28;20269;-72
2023/08/14 10:10:13;;;;;;;1.08;0.75;;;20.40;99.90;;;;;;5054854;28;20210;-72
2023/08/14 10:12:50;;;;;;;0.85;0.70;;;20.70;99.90;;;;;;5054582;28;20193;-73
2023/08/14 10:15:21;;;;;;;0.93;0.82;;;20.70;99.90;;;;;;5055429;28;20615;-73
2023/08/14 10:17:55;;;;;;;0.32;0.32;;;20.70;99.90;;;;;;5037073;28;20198;-73
2023/08/14 10:20:22;;;;;;;0.35;0.35;;;20.40;99.90;;;;;;5054625;28;20217;-73
2023/08/14 10:22:49;;;;;;;0.30;0.30;;;20.10;99.90;;;;;;5055134;28;20751;-73
2023/08/14 10:25:17;;;;;;;6.32;0.57;;;20.10;99.90;;;;;;5055371;28;20189;-73
2023/08/14 10:27:43;;;;;;;0.20;0.20;;;20.10;99.90;;;;;;5055024;28;20189;-73
2023/08/14 10:30:09;;;;;;;0.50;0.50;;;20.70;99.90;;;;;;5054660;28;20323;-73
2023/08/14 10:32:36;;;;;;;0.20;0.20;;;21.20;99.90;;;;;;5054534;28;20189;-73
2023/08/14 10:35:03;;;;;;;0.57;0.57;;;22.10;99.90;;;;;;5054564;28;20663;-73
2023/08/14 10:37:43;;;;;;;0.30;0.30;;;22.80;99.90;;;;;;5053698;28;20292;-73
2023/08/14 10:40:22;;;;;;;0.30;0.30;;;23.20;99.90;;;;;;5053600;28;20698;-74
2023/08/14 10:42:54;;;;;;;0.22;0.22;;;22.80;99.90;;;;;;5036242;28;20538;-74
2023/08/14 10:45:26;;;;;;;0.22;0.22;;;22.40;99.90;;;;;;5035689;28;20283;-73
2023/08/14 10:47:57;;;;;;;0.88;0.50;;;21.90;99.90;;;;;;5053864;28;20320;-73
2023/08/14 10:50:25;;;;;;;0.32;0.32;;;22.00;99.90;;;;;;5054009;28;20218;-73
2023/08/14 10:52:52;;;;;;;0.28;0.28;;;22.70;99.90;;;;;;5054089;28;20200;-72
2023/08/14 10:55:43;;;;;;;0.38;0.38;;;23.40;99.90;;;;;;5053649;28;20204;-73
2023/08/14 10:58:28;;;;;;;0.70;0.50;;;23.60;99.90;;;;;;5042956;28;20206;-74
2023/08/14 11:00:54;;;;;;;0.55;0.28;;;24.00;99.90;;;;;;5035955;28;20316;-73
2023/08/14 11:03:20;;;;;;;0.20;0.20;;;24.20;99.90;;;;;;5036888;28;20197;-74
2023/08/14 11:05:46;;;;;;;0.30;0.30;;;24.00;99.90;;;;;;5046924;28;20593;-74
2023/08/14 11:08:13;;;;;;;0.10;0.10;;;23.80;99.90;;;;;;5054191;28;20288;-73
2023/08/14 11:10:41;;;;;;;0.10;0.10;;;23.70;99.90;;;;;;5053921;28;20286;-74
2023/08/14 11:13:10;;;;;;;3.17;0.80;;;23.50;99.90;;;;;;5054375;28;20197;-73
2023/08/14 11:15:38;;;;;;;0.55;0.40;;;22.70;99.90;;;;;;5053800;28;20228;-73
2023/08/14 11:18:06;;;;;;;3.63;1.08;;;22.20;99.90;;;;;;5053462;28;20680;-74
2023/08/14 11:20:32;;;;;;;0.20;0.20;;;22.00;99.90;;;;;;5053604;28;20182;-73
2023/08/14 11:23:01;;;;;;;0.20;0.20;;;21.80;99.90;;;;;;5053417;28;20573;-74
2023/08/14 11:25:31;;;;;;;1.35;0.35;;;21.60;99.90;;;;;;5053847;28;20192;-74
2023/08/14 11:27:57;;;;;;;0.35;0.35;;;21.30;99.90;;;;;;5053400;28;20203;-74
2023/08/14 11:30:25;;;;;;;0.63;0.60;;;21.10;99.90;;;;;;5053589;28;20217;-74
2023/08/14 11:32:52;;;;;;;0.55;0.55;;;21.00;99.90;;;;;;5052497;28;20194;-74
2023/08/14 11:35:18;;;;;;;0.30;0.30;;;21.30;99.90;;;;;;5052889;28;20194;-73
2023/08/14 11:37:47;;;;;;;0.30;0.30;;;21.50;99.90;;;;;;5053132;28;20551;-73
2023/08/14 11:40:15;;;;;;;0.30;0.30;;;22.00;99.90;;;;;;5053074;28;20566;-74
2023/08/14 11:42:42;;;;;;;0.30;0.30;;;22.60;99.90;;;;;;5052281;28;20277;-74
2023/08/14 11:45:08;;;;;;;0.38;0.25;;;22.80;99.90;;;;;;5052980;28;20925;-72
2023/08/14 11:47:37;;;;;;;0.20;0.20;;;23.00;99.90;;;;;;5053623;28;20231;-72
2023/08/14 11:50:04;;;;;;;0.60;0.60;;;23.20;99.90;;;;;;5053238;28;20272;-72
2023/08/14 11:52:30;;;;;;;0.40;0.40;;;23.40;99.90;;;;;;5052952;28;20198;-73
2023/08/14 11:54:57;;;;;;;2.72;0.88;;;23.00;99.90;;;;;;5052954;28;20188;-72
2023/08/14 11:57:26;;;;;;;0.20;0.20;;;22.70;99.90;;;;;;5052872;28;20189;-72
2023/08/14 11:59:56;;;;;;;0.20;0.20;;;22.80;99.90;;;;;;5053079;28;20205;-72
2023/08/14 12:02:28;;;;;;;0.10;0.10;;;23.20;99.90;;;;;;5053051;28;20198;-72
2023/08/14 12:05:00;;;;;;;0.28;0.28;;;23.70;99.90;;;;;;5059636;28;20239;-72
2023/08/14 12:07:27;;;;;;;2.28;0.30;;;23.40;99.90;;;;;;5052029;28;20731;-72
2023/08/14 12:09:54;;;;;;;0.10;0.10;;;23.50;99.90;;;;;;5053280;28;20237;-72
2023/08/14 12:12:20;;;;;;;0.10;0.10;;;23.90;99.90;;;;;;5052416;28;20205;-73
2023/08/14 12:14:48;;;;;;;0.40;0.40;;;24.10;99.90;;;;;;5071311;28;20193;-72
2023/08/14 12:17:16;;;;;;;0.20;0.20;;;24.50;99.90;;;;;;5073207;28;20196;-72
2023/08/14 12:19:42;;;;;;;0.10;0.10;;;24.60;99.90;;;;;;5072603;28;20200;-72
2023/08/14 12:22:09;;;;;;;0.40;0.40;;;24.60;99.90;;;;;;5072377;28;20291;-73
2023/08/14 12:24:43;;;;;;;0.60;0.55;;;24.20;99.90;;;;;;5072826;28;20295;-72
2023/08/14 12:27:19;;;;;;;0.68;0.68;;;23.70;99.90;;;;;;5072610;28;20280;-72
2023/08/14 12:29:46;;;;;;;1.83;0.63;;;23.20;99.90;;;;;;5072730;28;20657;-73
2023/08/14 12:32:12;;;;;;;0.43;0.40;;;22.80;99.90;;;;;;5072871;28;20275;-71
2023/08/14 12:34:38;;;;;;;1.35;0.50;;;22.80;99.90;;;;;;5071242;28;20205;-72
2023/08/14 12:37:05;;;;;;;0.20;0.20;;;22.50;99.90;;;;;;5071488;28;20216;-72
2023/08/14 12:39:31;;;;;;;0.40;0.40;;;22.40;99.90;;;;;;5071195;28;20203;-72
2023/08/14 12:42:02;;;;;;;0.47;0.43;;;22.60;99.90;;;;;;5072376;28;20195;-72
2023/08/14 12:44:28;;;;;;;0.77;0.32;;;22.80;99.90;;;;;;5072369;28;20566;-72
2023/08/14 12:46:55;;;;;;;0.40;0.40;;;23.00;99.90;;;;;;5072302;28;20197;-72
2023/08/14 12:49:21;;;;;;;0.20;0.20;;;22.70;99.90;;;;;;5071834;28;20675;-72